sensor_id;sensor_type;location;lat;lon;timestamp;temperature;humidity
8214;DHT22;4148;47.974;7.824;2024-01-27T00:00:55;5.40;1.00
8214;DHT22;4148;47.974;7.824;2024-01-27T00:03:23;5.30;1.00
8214;DHT22;4148;47.974;7.824;2024-01-27T00:05:51;5.20;1.00
8214;DHT22;4148;47.974;7.824;2024-01-27T00:08:19;5.30;1.00
8214;DHT22;4148;47.974;7.824;2024-01-27T00:10:48;5.30;1.00
8214;DHT22;4148;47.974;7.824;2024-01-27T00:13:15;5.20;1.00
8214;DHT22;4148;47.974;7.824;2024-01-27T00:15:45;5.20;1.00
8214;DHT22;4148;47.974;7.824;2024-01-27T00:18:14;5.20;1.00
8214;DHT22;4148;47.974;7.824;2024-01-27T00:20:42;5.10;1.00
8214;DHT22;4148;47.974;7.824;2024-01-27T00:23:10;5.00;1.00
8214;DHT22;4148;47.974;7.824;2024-01-27T00:25:38;5.10;1.00
8214;DHT22;4148;47.974;7.824;2024-01-27T00:28:06;5.00;1.00
8214;DHT22;4148;47.974;7.824;2024-01-27T00:30:33;5.00;1.00
8214;DHT22;4148;47.974;7.824;2024-01-27T00:33:03;5.10;1.00
8214;DHT22;4148;47.974;7.824;2024-01-27T00:35:31;4.90;1.00
8214;DHT22;4148;47.974;7.824;2024-01-27T00:37:59;4.80;1.00
8214;DHT22;4148;47.974;7.824;2024-01-27T00:40:27;4.80;1.00
8214;DHT22;4148;47.974;7.824;2024-01-27T00:42:55;4.70;1.00
8214;DHT22;4148;47.974;7.824;2024-01-27T00:45:23;4.60;1.00
8214;DHT22;4148;47.974;7.824;2024-01-27T00:47:53;4.70;9.80
8214;DHT22;4148;47.974;7.824;2024-01-27T00:50:22;4.80;1.00
8214;DHT22;4148;47.974;7.824;2024-01-27T00:52:50;4.80;1.00
8214;DHT22;4148;47.974;7.824;2024-01-27T00:55:21;4.80;1.00
8214;DHT22;4148;47.974;7.824;2024-01-27T00:57:49;4.70;1.00
8214;DHT22;4148;47.974;7.824;2024-01-27T01:00:17;4.50;1.00
8214;DHT22;4148;47.974;7.824;2024-01-27T01:02:45;4.40;1.00
8214;DHT22;4148;47.974;7.824;2024-01-27T01:05:15;4.20;1.00
8214;DHT22;4148;47.974;7.824;2024-01-27T01:07:44;4.10;1.80
8214;DHT22;4148;47.974;7.824;2024-01-27T01:10:12;4.20;9.30
8214;DHT22;4148;47.974;7.824;2024-01-27T01:12:40;4.20;3.20
8214;DHT22;4148;47.974;7.824;2024-01-27T01:15:08;4.20;1.00
8214;DHT22;4148;47.974;7.824;2024-01-27T01:17:36;4.20;1.00
8214;DHT22;4148;47.974;7.824;2024-01-27T01:20:05;4.00;1.00
8214;DHT22;4148;47.974;7.824;2024-01-27T01:22:33;3.90;1.00
8214;DHT22;4148;47.974;7.824;2024-01-27T01:25:03;3.70;1.00
8214;DHT22;4148;47.974;7.824;2024-01-27T01:27:31;4.00;9.30
8214;DHT22;4148;47.974;7.824;2024-01-27T01:29:59;3.90;1.00
8214;DHT22;4148;47.974;7.824;2024-01-27T01:32:27;3.90;1.00
8214;DHT22;4148;47.974;7.824;2024-01-27T01:34:55;3.90;1.00
8214;DHT22;4148;47.974;7.824;2024-01-27T01:37:23;4.00;1.00
8214;DHT22;4148;47.974;7.824;2024-01-27T01:39:51;3.90;1.00
8214;DHT22;4148;47.974;7.824;2024-01-27T01:42:20;3.90;1.00
8214;DHT22;4148;47.974;7.824;2024-01-27T01:44:51;3.80;1.00
8214;DHT22;4148;47.974;7.824;2024-01-27T01:47:19;3.80;1.00
8214;DHT22;4148;47.974;7.824;2024-01-27T01:49:49;3.70;1.00
8214;DHT22;4148;47.974;7.824;2024-01-27T01:52:17;3.70;1.00
8214;DHT22;4148;47.974;7.824;2024-01-27T01:54:48;3.70;1.00
8214;DHT22;4148;47.974;7.824;2024-01-27T01:57:16;3.70;1.00
8214;DHT22;4148;47.974;7.824;2024-01-27T01:59:45;3.50;1.00
8214;DHT22;4148;47.974;7.824;2024-01-27T02:02:14;3.60;1.00
8214;DHT22;4148;47.974;7.824;2024-01-27T02:04:43;3.50;1.00
8214;DHT22;4148;47.974;7.824;2024-01-27T02:07:13;3.70;1.00
8214;DHT22;4148;47.974;7.824;2024-01-27T02:09:41;3.70;1.00
8214;DHT22;4148;47.974;7.824;2024-01-27T02:12:08;3.60;1.00
8214;DHT22;4148;47.974;7.824;2024-01-27T02:14:36;3.50;1.00
8214;DHT22;4148;47.974;7.824;2024-01-27T02:17:05;3.40;1.00
8214;DHT22;4148;47.974;7.824;2024-01-27T02:19:33;3.30;1.00
8214;DHT22;4148;47.974;7.824;2024-01-27T02:22:02;3.40;1.00
8214;DHT22;4148;47.974;7.824;2024-01-27T02:24:31;3.40;1.00
8214;DHT22;4148;47.974;7.824;2024-01-27T02:26:59;3.40;1.00
8214;DHT22;4148;47.974;7.824;2024-01-27T02:29:27;3.50;1.00
8214;DHT22;4148;47.974;7.824;2024-01-27T02:31:55;3.40;1.00
8214;DHT22;4148;47.974;7.824;2024-01-27T02:34:23;3.30;1.00
8214;DHT22;4148;47.974;7.824;2024-01-27T02:36:51;3.10;1.00
8214;DHT22;4148;47.974;7.824;2024-01-27T02:39:18;3.10;1.00
8214;DHT22;4148;47.974;7.824;2024-01-27T02:41:48;3.00;1.00
8214;DHT22;4148;47.974;7.824;2024-01-27T02:44:16;2.80;1.00
8214;DHT22;4148;47.974;7.824;2024-01-27T02:46:44;2.80;1.00
8214;DHT22;4148;47.974;7.824;2024-01-27T02:49:11;2.70;1.00
8214;DHT22;4148;47.974;7.824;2024-01-27T02:51:40;2.60;1.00
8214;DHT22;4148;47.974;7.824;2024-01-27T02:54:07;2.40;1.00
8214;DHT22;4148;47.974;7.824;2024-01-27T02:56:35;2.40;1.00
8214;DHT22;4148;47.974;7.824;2024-01-27T02:59:05;2.40;1.00
8214;DHT22;4148;47.974;7.824;2024-01-27T03:01:33;2.50;1.00
8214;DHT22;4148;47.974;7.824;2024-01-27T03:04:01;2.50;1.00
8214;DHT22;4148;47.974;7.824;2024-01-27T03:06:30;2.50;1.00
8214;DHT22;4148;47.974;7.824;2024-01-27T03:08:58;2.40;1.00
8214;DHT22;4148;47.974;7.824;2024-01-27T03:11:26;2.30;1.00
8214;DHT22;4148;47.974;7.824;2024-01-27T03:13:53;2.30;1.00
8214;DHT22;4148;47.974;7.824;2024-01-27T03:16:23;2.40;1.00
8214;DHT22;4148;47.974;7.824;2024-01-27T03:18:49;2.30;1.00
8214;DHT22;4148;47.974;7.824;2024-01-27T03:21:17;2.20;1.00
8214;DHT22;4148;47.974;7.824;2024-01-27T03:23:45;2.20;1.00
8214;DHT22;4148;47.974;7.824;2024-01-27T03:26:13;2.20;1.00
8214;DHT22;4148;47.974;7.824;2024-01-27T03:28:41;2.10;1.00
8214;DHT22;4148;47.974;7.824;2024-01-27T03:31:08;2.20;3.90
8214;DHT22;4148;47.974;7.824;2024-01-27T03:33:37;2.30;1.00
8214;DHT22;4148;47.974;7.824;2024-01-27T03:36:09;2.00;1.00
8214;DHT22;4148;47.974;7.824;2024-01-27T03:38:37;1.90;1.00
8214;DHT22;4148;47.974;7.824;2024-01-27T03:41:06;1.80;1.00
8214;DHT22;4148;47.974;7.824;2024-01-27T03:43:33;1.90;1.20
8214;DHT22;4148;47.974;7.824;2024-01-27T03:46:02;1.80;1.00
8214;DHT22;4148;47.974;7.824;2024-01-27T03:48:30;1.90;1.00
8214;DHT22;4148;47.974;7.824;2024-01-27T03:51:00;1.90;1.00
8214;DHT22;4148;47.974;7.824;2024-01-27T03:53:27;2.00;1.00
8214;DHT22;4148;47.974;7.824;2024-01-27T03:55:55;2.10;1.00
8214;DHT22;4148;47.974;7.824;2024-01-27T03:58:25;2.10;1.00
8214;DHT22;4148;47.974;7.824;2024-01-27T04:00:53;1.90;1.00
8214;DHT22;4148;47.974;7.824;2024-01-27T04:03:21;1.80;1.00
8214;DHT22;4148;47.974;7.824;2024-01-27T04:05:49;2.00;1.00
8214;DHT22;4148;47.974;7.824;2024-01-27T04:08:18;1.80;1.00
8214;DHT22;4148;47.974;7.824;2024-01-27T04:10:46;1.60;1.00
8214;DHT22;4148;47.974;7.824;2024-01-27T04:13:14;1.60;1.00
8214;DHT22;4148;47.974;7.824;2024-01-27T04:15:41;1.50;1.00
8214;DHT22;4148;47.974;7.824;2024-01-27T04:18:09;1.40;1.00
8214;DHT22;4148;47.974;7.824;2024-01-27T04:20:38;1.30;1.00
8214;DHT22;4148;47.974;7.824;2024-01-27T04:23:06;1.50;5.40
8214;DHT22;4148;47.974;7.824;2024-01-27T04:25:36;1.70;1.00
8214;DHT22;4148;47.974;7.824;2024-01-27T04:28:04;1.90;1.00
8214;DHT22;4148;47.974;7.824;2024-01-27T04:30:32;1.90;1.00
8214;DHT22;4148;47.974;7.824;2024-01-27T04:33:00;1.70;1.00
8214;DHT22;4148;47.974;7.824;2024-01-27T04:35:28;1.50;1.00
8214;DHT22;4148;47.974;7.824;2024-01-27T04:37:56;1.40;1.00
8214;DHT22;4148;47.974;7.824;2024-01-27T04:40:24;1.70;1.00
8214;DHT22;4148;47.974;7.824;2024-01-27T04:42:53;1.90;1.00
8214;DHT22;4148;47.974;7.824;2024-01-27T04:45:21;2.00;1.00
8214;DHT22;4148;47.974;7.824;2024-01-27T04:47:49;2.00;1.00
8214;DHT22;4148;47.974;7.824;2024-01-27T04:50:17;1.70;1.00
8214;DHT22;4148;47.974;7.824;2024-01-27T04:52:45;1.50;1.00
8214;DHT22;4148;47.974;7.824;2024-01-27T04:55:13;1.50;1.00
8214;DHT22;4148;47.974;7.824;2024-01-27T04:57:41;1.60;1.00
8214;DHT22;4148;47.974;7.824;2024-01-27T05:00:12;1.60;1.00
8214;DHT22;4148;47.974;7.824;2024-01-27T05:02:40;1.60;1.00
8214;DHT22;4148;47.974;7.824;2024-01-27T05:05:08;1.50;1.00
8214;DHT22;4148;47.974;7.824;2024-01-27T05:07:36;1.40;1.00
8214;DHT22;4148;47.974;7.824;2024-01-27T05:10:05;1.20;1.00
8214;DHT22;4148;47.974;7.824;2024-01-27T05:12:33;1.20;1.00
8214;DHT22;4148;47.974;7.824;2024-01-27T05:15:01;1.10;1.00
8214;DHT22;4148;47.974;7.824;2024-01-27T05:17:30;1.00;1.00
8214;DHT22;4148;47.974;7.824;2024-01-27T05:19:58;1.10;1.00
8214;DHT22;4148;47.974;7.824;2024-01-27T05:22:26;1.30;1.00
8214;DHT22;4148;47.974;7.824;2024-01-27T05:24:54;1.50;1.00
8214;DHT22;4148;47.974;7.824;2024-01-27T05:27:21;1.30;1.00
8214;DHT22;4148;47.974;7.824;2024-01-27T05:29:50;1.30;1.00
8214;DHT22;4148;47.974;7.824;2024-01-27T05:32:18;1.20;1.00
8214;DHT22;4148;47.974;7.824;2024-01-27T05:34:47;1.10;1.00
8214;DHT22;4148;47.974;7.824;2024-01-27T05:37:15;1.30;1.00
8214;DHT22;4148;47.974;7.824;2024-01-27T05:39:42;1.30;1.00
8214;DHT22;4148;47.974;7.824;2024-01-27T05:42:11;1.20;1.00
8214;DHT22;4148;47.974;7.824;2024-01-27T05:44:39;1.10;1.00
8214;DHT22;4148;47.974;7.824;2024-01-27T05:47:07;1.30;1.00
8214;DHT22;4148;47.974;7.824;2024-01-27T05:49:38;1.40;1.00
8214;DHT22;4148;47.974;7.824;2024-01-27T05:52:07;1.40;1.00
8214;DHT22;4148;47.974;7.824;2024-01-27T05:54:35;1.20;1.00
8214;DHT22;4148;47.974;7.824;2024-01-27T05:57:03;1.10;1.00
8214;DHT22;4148;47.974;7.824;2024-01-27T05:59:31;1.10;1.00
8214;DHT22;4148;47.974;7.824;2024-01-27T06:01:59;1.00;1.00
8214;DHT22;4148;47.974;7.824;2024-01-27T06:04:28;0.90;1.00
8214;DHT22;4148;47.974;7.824;2024-01-27T06:06:58;0.90;1.00
8214;DHT22;4148;47.974;7.824;2024-01-27T06:09:28;1.00;1.00
8214;DHT22;4148;47.974;7.824;2024-01-27T06:11:59;0.90;1.00
8214;DHT22;4148;47.974;7.824;2024-01-27T06:14:27;1.00;1.00
8214;DHT22;4148;47.974;7.824;2024-01-27T06:16:54;1.00;1.00
8214;DHT22;4148;47.974;7.824;2024-01-27T06:19:23;0.90;1.00
8214;DHT22;4148;47.974;7.824;2024-01-27T06:21:51;0.90;1.00
8214;DHT22;4148;47.974;7.824;2024-01-27T06:24:20;0.80;1.00
8214;DHT22;4148;47.974;7.824;2024-01-27T06:26:49;0.70;1.00
8214;DHT22;4148;47.974;7.824;2024-01-27T06:29:17;0.70;2.00
8214;DHT22;4148;47.974;7.824;2024-01-27T06:31:45;0.60;4.00
8214;DHT22;4148;47.974;7.824;2024-01-27T06:34:13;0.50;4.90
8214;DHT22;4148;47.974;7.824;2024-01-27T06:36:41;0.50;6.10
8214;DHT22;4148;47.974;7.824;2024-01-27T06:39:09;0.50;7.30
8214;DHT22;4148;47.974;7.824;2024-01-27T06:41:37;0.40;4.90
8214;DHT22;4148;47.974;7.824;2024-01-27T06:44:06;0.50;13.70
8214;DHT22;4148;47.974;7.824;2024-01-27T06:46:35;0.50;4.80
8214;DHT22;4148;47.974;7.824;2024-01-27T06:49:03;0.60;8.40
8214;DHT22;4148;47.974;7.824;2024-01-27T06:51:31;0.80;6.80
8214;DHT22;4148;47.974;7.824;2024-01-27T06:53:59;1.00;1.00
8214;DHT22;4148;47.974;7.824;2024-01-27T06:56:27;0.80;1.00
8214;DHT22;4148;47.974;7.824;2024-01-27T06:58:54;0.60;1.00
8214;DHT22;4148;47.974;7.824;2024-01-27T07:01:24;0.50;1.00
8214;DHT22;4148;47.974;7.824;2024-01-27T07:03:52;0.50;1.00
8214;DHT22;4148;47.974;7.824;2024-01-27T07:06:20;0.40;1.00
8214;DHT22;4148;47.974;7.824;2024-01-27T07:08:48;0.40;1.30
8214;DHT22;4148;47.974;7.824;2024-01-27T07:11:16;0.50;4.00
8214;DHT22;4148;47.974;7.824;2024-01-27T07:13:44;0.60;5.90
8214;DHT22;4148;47.974;7.824;2024-01-27T07:16:12;0.80;6.10
8214;DHT22;4148;47.974;7.824;2024-01-27T07:18:41;0.80;1.00
8214;DHT22;4148;47.974;7.824;2024-01-27T07:21:15;0.70;1.00
8214;DHT22;4148;47.974;7.824;2024-01-27T07:23:44;0.70;1.00
8214;DHT22;4148;47.974;7.824;2024-01-27T07:26:12;0.70;1.00
8214;DHT22;4148;47.974;7.824;2024-01-27T07:28:40;0.60;1.00
8214;DHT22;4148;47.974;7.824;2024-01-27T07:31:08;0.60;1.00
8214;DHT22;4148;47.974;7.824;2024-01-27T07:33:36;0.70;1.00
8214;DHT22;4148;47.974;7.824;2024-01-27T07:36:07;0.70;1.00
8214;DHT22;4148;47.974;7.824;2024-01-27T07:38:35;0.60;1.00
8214;DHT22;4148;47.974;7.824;2024-01-27T07:41:03;0.50;1.00
8214;DHT22;4148;47.974;7.824;2024-01-27T07:43:31;0.40;1.00
8214;DHT22;4148;47.974;7.824;2024-01-27T07:45:59;0.60;4.90
8214;DHT22;4148;47.974;7.824;2024-01-27T07:48:26;0.60;1.00
8214;DHT22;4148;47.974;7.824;2024-01-27T07:50:54;0.50;1.00
8214;DHT22;4148;47.974;7.824;2024-01-27T07:53:25;0.60;1.00
8214;DHT22;4148;47.974;7.824;2024-01-27T07:55:52;0.70;1.00
8214;DHT22;4148;47.974;7.824;2024-01-27T07:58:22;0.70;1.00
8214;DHT22;4148;47.974;7.824;2024-01-27T08:00:50;0.60;1.00
8214;DHT22;4148;47.974;7.824;2024-01-27T08:03:18;0.60;1.00
8214;DHT22;4148;47.974;7.824;2024-01-27T08:05:46;0.80;1.00
8214;DHT22;4148;47.974;7.824;2024-01-27T08:08:14;0.70;1.00
8214;DHT22;4148;47.974;7.824;2024-01-27T08:10:44;0.60;1.00
8214;DHT22;4148;47.974;7.824;2024-01-27T08:13:12;0.60;1.30
8214;DHT22;4148;47.974;7.824;2024-01-27T08:15:40;0.50;5.50
8214;DHT22;4148;47.974;7.824;2024-01-27T08:18:07;0.50;10.00
8214;DHT22;4148;47.974;7.824;2024-01-27T08:20:36;0.60;13.30
8214;DHT22;4148;47.974;7.824;2024-01-27T08:23:04;0.70;17.50
8214;DHT22;4148;47.974;7.824;2024-01-27T08:25:33;0.80;15.00
8214;DHT22;4148;47.974;7.824;2024-01-27T08:28:03;0.80;14.90
8214;DHT22;4148;47.974;7.824;2024-01-27T08:30:31;1.00;16.90
8214;DHT22;4148;47.974;7.824;2024-01-27T08:32:59;1.10;3.20
8214;DHT22;4148;47.974;7.824;2024-01-27T08:35:27;1.20;2.20
8214;DHT22;4148;47.974;7.824;2024-01-27T08:37:55;1.10;3.60
8214;DHT22;4148;47.974;7.824;2024-01-27T08:40:23;1.20;7.90
8214;DHT22;4148;47.974;7.824;2024-01-27T08:42:51;1.20;10.20
8214;DHT22;4148;47.974;7.824;2024-01-27T08:45:20;1.40;13.30
8214;DHT22;4148;47.974;7.824;2024-01-27T08:47:48;1.40;13.20
8214;DHT22;4148;47.974;7.824;2024-01-27T08:50:16;1.40;12.10
8214;DHT22;4148;47.974;7.824;2024-01-27T08:52:44;1.50;13.40
8214;DHT22;4148;47.974;7.824;2024-01-27T08:55:12;1.50;13.30
8214;DHT22;4148;47.974;7.824;2024-01-27T08:57:40;1.50;12.60
8214;DHT22;4148;47.974;7.824;2024-01-27T09:00:09;1.60;13.20
8214;DHT22;4148;47.974;7.824;2024-01-27T09:02:40;1.80;13.60
8214;DHT22;4148;47.974;7.824;2024-01-27T09:05:08;1.90;11.40
8214;DHT22;4148;47.974;7.824;2024-01-27T09:07:36;2.00;8.10
8214;DHT22;4148;47.974;7.824;2024-01-27T09:10:05;2.20;1.00
8214;DHT22;4148;47.974;7.824;2024-01-27T09:12:33;2.30;1.00
8214;DHT22;4148;47.974;7.824;2024-01-27T09:15:01;2.40;1.00
8214;DHT22;4148;47.974;7.824;2024-01-27T09:17:29;2.60;1.00
8214;DHT22;4148;47.974;7.824;2024-01-27T09:19:58;2.80;1.00
8214;DHT22;4148;47.974;7.824;2024-01-27T09:22:27;2.90;1.00
8214;DHT22;4148;47.974;7.824;2024-01-27T09:24:54;3.00;1.00
8214;DHT22;4148;47.974;7.824;2024-01-27T09:27:22;3.10;1.00
8214;DHT22;4148;47.974;7.824;2024-01-27T09:29:50;3.30;1.00
8214;DHT22;4148;47.974;7.824;2024-01-27T09:32:18;3.40;1.00
8214;DHT22;4148;47.974;7.824;2024-01-27T09:34:46;3.60;1.00
8214;DHT22;4148;47.974;7.824;2024-01-27T09:37:15;3.90;1.00
8214;DHT22;4148;47.974;7.824;2024-01-27T09:39:43;4.40;1.00
8214;DHT22;4148;47.974;7.824;2024-01-27T09:42:13;5.10;1.00
8214;DHT22;4148;47.974;7.824;2024-01-27T09:44:43;5.50;1.00
8214;DHT22;4148;47.974;7.824;2024-01-27T09:47:11;6.10;1.00
8214;DHT22;4148;47.974;7.824;2024-01-27T09:52:09;7.20;1.00
8214;DHT22;4148;47.974;7.824;2024-01-27T09:54:40;7.40;61.60
8214;DHT22;4148;47.974;7.824;2024-01-27T09:57:09;7.90;99.90
8214;DHT22;4148;47.974;7.824;2024-01-27T09:59:40;8.10;99.90
8214;DHT22;4148;47.974;7.824;2024-01-27T10:02:11;8.40;1.00
8214;DHT22;4148;47.974;7.824;2024-01-27T10:04:41;8.60;1.00
8214;DHT22;4148;47.974;7.824;2024-01-27T10:07:09;8.90;99.90
8214;DHT22;4148;47.974;7.824;2024-01-27T10:09:38;9.30;99.90
8214;DHT22;4148;47.974;7.824;2024-01-27T10:12:10;9.30;99.90
8214;DHT22;4148;47.974;7.824;2024-01-27T10:14:39;9.20;99.90
8214;DHT22;4148;47.974;7.824;2024-01-27T10:17:10;9.10;99.90
8214;DHT22;4148;47.974;7.824;2024-01-27T10:19:38;9.20;99.90
8214;DHT22;4148;47.974;7.824;2024-01-27T10:22:11;9.60;89.10
8214;DHT22;4148;47.974;7.824;2024-01-27T10:24:40;9.90;43.50
8214;DHT22;4148;47.974;7.824;2024-01-27T10:27:10;10.00;1.00
8214;DHT22;4148;47.974;7.824;2024-01-27T10:29:37;10.30;1.00
8214;DHT22;4148;47.974;7.824;2024-01-27T10:32:09;10.50;1.00
8214;DHT22;4148;47.974;7.824;2024-01-27T10:34:37;10.80;1.00
8214;DHT22;4148;47.974;7.824;2024-01-27T10:37:05;10.90;1.00
8214;DHT22;4148;47.974;7.824;2024-01-27T10:39:33;10.90;1.00
8214;DHT22;4148;47.974;7.824;2024-01-27T10:42:03;11.10;1.00
8214;DHT22;4148;47.974;7.824;2024-01-27T10:44:31;11.40;1.00
8214;DHT22;4148;47.974;7.824;2024-01-27T10:47:02;11.70;1.00
8214;DHT22;4148;47.974;7.824;2024-01-27T10:49:32;11.40;1.00
8214;DHT22;4148;47.974;7.824;2024-01-27T10:52:04;11.60;1.00
8214;DHT22;4148;47.974;7.824;2024-01-27T10:54:39;11.50;1.00
8214;DHT22;4148;47.974;7.824;2024-01-27T10:57:09;11.60;1.00
8214;DHT22;4148;47.974;7.824;2024-01-27T10:59:40;11.50;1.00
8214;DHT22;4148;47.974;7.824;2024-01-27T11:02:11;11.80;1.00
8214;DHT22;4148;47.974;7.824;2024-01-27T11:04:42;11.70;99.90
8214;DHT22;4148;47.974;7.824;2024-01-27T11:09:38;11.90;99.90
8214;DHT22;4148;47.974;7.824;2024-01-27T11:12:10;12.30;99.90
8214;DHT22;4148;47.974;7.824;2024-01-27T11:14:38;12.60;99.90
8214;DHT22;4148;47.974;7.824;2024-01-27T11:17:09;12.70;99.90
8214;DHT22;4148;47.974;7.824;2024-01-27T11:19:37;12.90;99.90
8214;DHT22;4148;47.974;7.824;2024-01-27T11:22:07;13.00;99.90
8214;DHT22;4148;47.974;7.824;2024-01-27T11:24:35;13.00;99.90
8214;DHT22;4148;47.974;7.824;2024-01-27T11:27:03;13.00;99.90
8214;DHT22;4148;47.974;7.824;2024-01-27T11:29:35;13.10;99.90
8214;DHT22;4148;47.974;7.824;2024-01-27T11:32:03;13.20;99.90
8214;DHT22;4148;47.974;7.824;2024-01-27T11:34:42;13.50;99.90
8214;DHT22;4148;47.974;7.824;2024-01-27T11:39:39;13.90;99.90
8214;DHT22;4148;47.974;7.824;2024-01-27T11:42:09;13.70;99.90
8214;DHT22;4148;47.974;7.824;2024-01-27T11:44:39;13.70;99.90
8214;DHT22;4148;47.974;7.824;2024-01-27T11:47:15;14.20;99.90
8214;DHT22;4148;47.974;7.824;2024-01-27T11:49:43;14.30;99.90
8214;DHT22;4148;47.974;7.824;2024-01-27T11:52:11;14.40;99.90
8214;DHT22;4148;47.974;7.824;2024-01-27T11:54:38;14.40;99.90
8214;DHT22;4148;47.974;7.824;2024-01-27T11:57:06;14.20;99.90
8214;DHT22;4148;47.974;7.824;2024-01-27T11:59:34;13.80;99.90
8214;DHT22;4148;47.974;7.824;2024-01-27T12:02:04;13.50;99.90
8214;DHT22;4148;47.974;7.824;2024-01-27T12:04:32;13.30;99.90
8214;DHT22;4148;47.974;7.824;2024-01-27T12:07:00;13.20;99.90
8214;DHT22;4148;47.974;7.824;2024-01-27T12:09:29;13.00;99.90
8214;DHT22;4148;47.974;7.824;2024-01-27T12:11:57;13.10;99.90
8214;DHT22;4148;47.974;7.824;2024-01-27T12:14:24;13.30;99.90
8214;DHT22;4148;47.974;7.824;2024-01-27T12:16:52;13.40;99.90
8214;DHT22;4148;47.974;7.824;2024-01-27T12:19:22;13.10;99.90
8214;DHT22;4148;47.974;7.824;2024-01-27T12:21:50;13.10;99.90
8214;DHT22;4148;47.974;7.824;2024-01-27T12:24:18;13.30;99.90
8214;DHT22;4148;47.974;7.824;2024-01-27T12:26:48;13.50;99.90
8214;DHT22;4148;47.974;7.824;2024-01-27T12:29:16;13.40;99.90
8214;DHT22;4148;47.974;7.824;2024-01-27T12:31:46;13.40;99.90
8214;DHT22;4148;47.974;7.824;2024-01-27T12:34:14;13.20;99.90
8214;DHT22;4148;47.974;7.824;2024-01-27T12:36:48;13.00;99.90
8214;DHT22;4148;47.974;7.824;2024-01-27T12:39:18;12.70;99.90
8214;DHT22;4148;47.974;7.824;2024-01-27T12:41:48;12.50;99.90
8214;DHT22;4148;47.974;7.824;2024-01-27T12:44:16;12.10;99.90
8214;DHT22;4148;47.974;7.824;2024-01-27T12:46:43;11.90;99.90
8214;DHT22;4148;47.974;7.824;2024-01-27T12:49:11;11.40;99.90
8214;DHT22;4148;47.974;7.824;2024-01-27T12:51:39;11.20;99.90
8214;DHT22;4148;47.974;7.824;2024-01-27T12:54:11;11.00;99.90
8214;DHT22;4148;47.974;7.824;2024-01-27T12:56:39;10.70;99.90
8214;DHT22;4148;47.974;7.824;2024-01-27T12:59:07;10.60;99.90
8214;DHT22;4148;47.974;7.824;2024-01-27T13:01:35;10.60;99.90
8214;DHT22;4148;47.974;7.824;2024-01-27T13:04:03;10.70;99.90
8214;DHT22;4148;47.974;7.824;2024-01-27T13:06:31;10.40;99.90
8214;DHT22;4148;47.974;7.824;2024-01-27T13:08:59;10.10;99.90
8214;DHT22;4148;47.974;7.824;2024-01-27T13:11:28;10.00;99.90
8214;DHT22;4148;47.974;7.824;2024-01-27T13:13:56;10.00;99.90
8214;DHT22;4148;47.974;7.824;2024-01-27T13:16:24;10.00;99.90
8214;DHT22;4148;47.974;7.824;2024-01-27T13:18:52;10.00;99.90
8214;DHT22;4148;47.974;7.824;2024-01-27T13:21:20;9.70;99.90
8214;DHT22;4148;47.974;7.824;2024-01-27T13:23:48;9.60;99.90
8214;DHT22;4148;47.974;7.824;2024-01-27T13:26:18;9.50;99.90
8214;DHT22;4148;47.974;7.824;2024-01-27T13:28:49;9.30;99.90
8214;DHT22;4148;47.974;7.824;2024-01-27T13:31:17;9.10;99.90
8214;DHT22;4148;47.974;7.824;2024-01-27T13:33:45;9.00;99.90
8214;DHT22;4148;47.974;7.824;2024-01-27T13:36:14;8.90;99.90
8214;DHT22;4148;47.974;7.824;2024-01-27T13:38:43;8.80;99.90
8214;DHT22;4148;47.974;7.824;2024-01-27T13:41:11;8.80;99.90
8214;DHT22;4148;47.974;7.824;2024-01-27T13:43:39;8.80;99.90
8214;DHT22;4148;47.974;7.824;2024-01-27T13:46:08;8.80;99.90
8214;DHT22;4148;47.974;7.824;2024-01-27T13:48:36;8.70;99.90
8214;DHT22;4148;47.974;7.824;2024-01-27T13:51:04;8.70;99.90
8214;DHT22;4148;47.974;7.824;2024-01-27T13:53:32;8.80;99.90
8214;DHT22;4148;47.974;7.824;2024-01-27T13:56:12;8.70;99.90
8214;DHT22;4148;47.974;7.824;2024-01-27T14:01:10;8.50;99.90
8214;DHT22;4148;47.974;7.824;2024-01-27T14:03:38;8.40;1.00
8214;DHT22;4148;47.974;7.824;2024-01-27T14:06:06;8.40;1.00
8214;DHT22;4148;47.974;7.824;2024-01-27T14:08:39;8.40;1.00
8214;DHT22;4148;47.974;7.824;2024-01-27T14:11:07;8.30;1.00
8214;DHT22;4148;47.974;7.824;2024-01-27T14:13:36;8.30;1.00
8214;DHT22;4148;47.974;7.824;2024-01-27T14:16:04;8.30;1.00
8214;DHT22;4148;47.974;7.824;2024-01-27T14:18:33;8.30;1.00
8214;DHT22;4148;47.974;7.824;2024-01-27T14:21:02;8.30;1.00
8214;DHT22;4148;47.974;7.824;2024-01-27T14:23:30;8.40;1.00
8214;DHT22;4148;47.974;7.824;2024-01-27T14:25:58;8.40;1.00
8214;DHT22;4148;47.974;7.824;2024-01-27T14:28:26;8.30;1.00
8214;DHT22;4148;47.974;7.824;2024-01-27T14:30:54;8.30;1.00
8214;DHT22;4148;47.974;7.824;2024-01-27T14:33:22;8.30;1.00
8214;DHT22;4148;47.974;7.824;2024-01-27T14:35:52;8.30;1.00
8214;DHT22;4148;47.974;7.824;2024-01-27T14:38:21;8.20;1.00
8214;DHT22;4148;47.974;7.824;2024-01-27T14:40:49;8.20;1.00
8214;DHT22;4148;47.974;7.824;2024-01-27T14:43:16;8.10;1.00
8214;DHT22;4148;47.974;7.824;2024-01-27T14:45:46;8.10;1.00
8214;DHT22;4148;47.974;7.824;2024-01-27T14:48:14;8.10;1.00
8214;DHT22;4148;47.974;7.824;2024-01-27T14:50:45;8.10;1.00
8214;DHT22;4148;47.974;7.824;2024-01-27T14:53:15;8.00;1.00
8214;DHT22;4148;47.974;7.824;2024-01-27T14:55:44;8.00;1.00
8214;DHT22;4148;47.974;7.824;2024-01-27T14:58:12;8.00;1.00
8214;DHT22;4148;47.974;7.824;2024-01-27T15:00:40;7.90;1.00
8214;DHT22;4148;47.974;7.824;2024-01-27T15:03:08;7.90;1.00
8214;DHT22;4148;47.974;7.824;2024-01-27T15:05:36;8.00;1.00
8214;DHT22;4148;47.974;7.824;2024-01-27T15:08:07;8.00;1.00
8214;DHT22;4148;47.974;7.824;2024-01-27T15:10:37;7.90;1.00
8214;DHT22;4148;47.974;7.824;2024-01-27T15:13:06;7.80;1.00
8214;DHT22;4148;47.974;7.824;2024-01-27T15:15:34;7.80;1.00
8214;DHT22;4148;47.974;7.824;2024-01-27T15:18:03;7.80;1.00
8214;DHT22;4148;47.974;7.824;2024-01-27T15:20:31;7.70;1.00
8214;DHT22;4148;47.974;7.824;2024-01-27T15:22:59;7.70;1.00
8214;DHT22;4148;47.974;7.824;2024-01-27T15:25:27;7.70;1.00
8214;DHT22;4148;47.974;7.824;2024-01-27T15:27:56;7.70;1.00
8214;DHT22;4148;47.974;7.824;2024-01-27T15:30:24;7.60;1.00
8214;DHT22;4148;47.974;7.824;2024-01-27T15:32:52;7.60;1.00
8214;DHT22;4148;47.974;7.824;2024-01-27T15:35:21;7.50;1.00
8214;DHT22;4148;47.974;7.824;2024-01-27T15:37:49;7.50;1.00
8214;DHT22;4148;47.974;7.824;2024-01-27T15:40:17;7.50;1.00
8214;DHT22;4148;47.974;7.824;2024-01-27T15:42:45;7.50;1.00
8214;DHT22;4148;47.974;7.824;2024-01-27T15:45:14;7.40;1.00
8214;DHT22;4148;47.974;7.824;2024-01-27T15:47:42;7.40;1.00
8214;DHT22;4148;47.974;7.824;2024-01-27T15:50:10;7.40;1.00
8214;DHT22;4148;47.974;7.824;2024-01-27T15:52:40;7.30;1.00
8214;DHT22;4148;47.974;7.824;2024-01-27T15:55:08;7.30;91.70
8214;DHT22;4148;47.974;7.824;2024-01-27T15:57:36;7.20;16.40
8214;DHT22;4148;47.974;7.824;2024-01-27T16:00:05;7.10;9.10
8214;DHT22;4148;47.974;7.824;2024-01-27T16:02:38;7.10;50.10
8214;DHT22;4148;47.974;7.824;2024-01-27T16:05:07;7.10;95.40
8214;DHT22;4148;47.974;7.824;2024-01-27T16:07:35;7.00;99.90
8214;DHT22;4148;47.974;7.824;2024-01-27T16:10:04;7.10;1.00
8214;DHT22;4148;47.974;7.824;2024-01-27T16:12:32;7.00;1.00
8214;DHT22;4148;47.974;7.824;2024-01-27T16:15:00;6.90;99.90
8214;DHT22;4148;47.974;7.824;2024-01-27T16:17:28;6.80;1.00
8214;DHT22;4148;47.974;7.824;2024-01-27T16:19:58;6.60;1.00
8214;DHT22;4148;47.974;7.824;2024-01-27T16:22:25;6.50;1.00
8214;DHT22;4148;47.974;7.824;2024-01-27T16:24:53;6.30;99.90
8214;DHT22;4148;47.974;7.824;2024-01-27T16:27:21;6.20;99.90
8214;DHT22;4148;47.974;7.824;2024-01-27T16:29:55;6.10;99.90
8214;DHT22;4148;47.974;7.824;2024-01-27T16:32:24;6.00;32.90
8214;DHT22;4148;47.974;7.824;2024-01-27T16:34:52;5.90;99.90
8214;DHT22;4148;47.974;7.824;2024-01-27T16:37:21;5.90;1.00
8214;DHT22;4148;47.974;7.824;2024-01-27T16:39:49;6.00;99.90
8214;DHT22;4148;47.974;7.824;2024-01-27T16:42:17;6.00;99.90
8214;DHT22;4148;47.974;7.824;2024-01-27T16:44:45;6.00;99.90